createdAt,value
2018-01-08T00:00:08.864Z,7.50
2018-01-08T00:02:35.467Z,8.53
2018-01-08T00:05:02.061Z,7.50
2018-01-08T00:07:28.648Z,8.73
2018-01-08T00:09:55.247Z,6.97
2018-01-08T00:12:21.835Z,7.80
2018-01-08T00:14:48.427Z,8.30
2018-01-08T00:17:15.047Z,7.27
2018-01-08T00:19:41.691Z,8.30
2018-01-08T00:22:08.283Z,9.50
2018-01-08T00:24:34.880Z,6.93
2018-01-08T00:27:01.467Z,8.13
2018-01-08T00:29:28.059Z,7.83
2018-01-08T00:31:54.685Z,7.63
2018-01-08T00:34:21.263Z,8.03
2018-01-08T00:36:47.851Z,7.10
2018-01-08T00:39:14.449Z,7.97
2018-01-08T00:41:41.051Z,9.00
2018-01-08T00:44:07.651Z,7.63
2018-01-08T00:46:34.254Z,7.43
2018-01-08T00:49:00.844Z,10.43
2018-01-08T00:51:27.432Z,8.60
2018-01-08T00:53:54.036Z,8.47
2018-01-08T00:56:20.654Z,7.83
2018-01-08T00:58:47.246Z,8.30
2018-01-08T01:01:13.863Z,7.87
2018-01-08T01:03:40.456Z,8.20
2018-01-08T01:06:07.043Z,7.70
2018-01-08T01:08:33.665Z,7.40
2018-01-08T01:11:00.252Z,8.07
2018-01-08T01:13:26.837Z,8.90
2018-01-08T01:15:53.441Z,7.77
2018-01-08T01:18:20.028Z,9.07
2018-01-08T01:20:46.614Z,8.50
2018-01-08T01:23:13.215Z,9.90
2018-01-08T01:25:39.808Z,8.27
2018-01-08T01:28:06.395Z,8.40
2018-01-08T01:30:33.048Z,7.60
2018-01-08T01:32:59.619Z,7.73
2018-01-08T01:35:26.207Z,8.10
2018-01-08T01:37:52.811Z,8.60
2018-01-08T01:40:19.397Z,8.37
2018-01-08T01:42:45.987Z,8.60
2018-01-08T01:45:12.592Z,9.10
2018-01-08T01:50:12.344Z,7.30
2018-01-08T01:52:38.942Z,7.83
2018-01-08T01:55:05.532Z,6.80
2018-01-08T01:57:32.134Z,7.40
2018-01-08T01:59:58.727Z,6.97
2018-01-08T02:02:25.316Z,6.47
2018-01-08T02:04:51.927Z,7.27
2018-01-08T02:07:18.518Z,7.67
2018-01-08T02:09:45.110Z,6.43
2018-01-08T02:12:11.703Z,7.87
2018-01-08T02:14:38.297Z,7.17
2018-01-08T02:17:04.883Z,6.93
2018-01-08T02:19:31.487Z,6.43
2018-01-08T02:21:58.079Z,6.47
2018-01-08T02:24:24.668Z,7.00
2018-01-08T02:26:51.264Z,7.53
2018-01-08T02:29:17.855Z,7.77
2018-01-08T02:31:44.455Z,6.97
2018-01-08T02:34:11.059Z,6.87
2018-01-08T02:36:37.651Z,6.20
2018-01-08T02:39:04.239Z,7.00
2018-01-08T02:41:30.855Z,6.57
2018-01-08T02:43:57.447Z,6.50
2018-01-08T02:46:24.039Z,6.00
2018-01-08T02:48:50.675Z,7.50
2018-01-08T02:51:17.280Z,6.07
2018-01-08T02:53:43.871Z,7.37
2018-01-08T02:56:10.475Z,6.23
2018-01-08T02:58:37.068Z,9.63
2018-01-08T03:01:03.668Z,5.50
2018-01-08T03:03:30.283Z,6.60
2018-01-08T03:05:56.875Z,6.90
2018-01-08T03:08:23.459Z,6.50
2018-01-08T03:10:50.060Z,6.33
2018-01-08T03:13:16.648Z,6.13
2018-01-08T03:15:43.236Z,7.37
2018-01-08T03:18:09.844Z,7.23
2018-01-08T03:20:36.447Z,7.07
2018-01-08T03:23:03.035Z,5.83
2018-01-08T03:25:29.635Z,7.47
2018-01-08T03:27:56.223Z,5.87
2018-01-08T03:30:22.819Z,6.40
2018-01-08T03:32:49.411Z,7.60
2018-01-08T03:35:16.003Z,8.57
2018-01-08T03:37:42.607Z,8.00
2018-01-08T03:40:09.224Z,9.50
2018-01-08T03:42:35.812Z,6.50
2018-01-08T03:45:02.408Z,6.27
2018-01-08T03:47:28.992Z,6.23
2018-01-08T03:49:55.603Z,5.57
2018-01-08T03:52:22.196Z,7.50
2018-01-08T03:54:48.782Z,5.70
2018-01-08T03:57:15.379Z,5.87
2018-01-08T03:59:41.976Z,6.87
2018-01-08T04:02:08.580Z,9.17
2018-01-08T04:04:35.167Z,8.33
2018-01-08T04:07:01.756Z,6.60
2018-01-08T04:09:28.355Z,7.13
2018-01-08T04:11:54.974Z,6.90
2018-01-08T04:14:21.575Z,8.20
2018-01-08T04:16:48.177Z,8.03
2018-01-08T04:19:14.788Z,6.47
2018-01-08T04:21:41.392Z,7.17
2018-01-08T04:24:07.979Z,8.00
2018-01-08T04:26:34.600Z,7.50
2018-01-08T04:29:01.195Z,7.37
2018-01-08T04:31:27.792Z,9.00
2018-01-08T04:33:54.388Z,8.90
2018-01-08T04:36:20.986Z,6.60
2018-01-08T04:38:47.588Z,7.00
2018-01-08T04:41:14.189Z,7.67
2018-01-08T04:43:40.786Z,7.60
2018-01-08T04:46:07.375Z,7.63
2018-01-08T04:48:33.968Z,7.87
2018-01-08T04:51:00.619Z,6.57
2018-01-08T04:53:27.192Z,7.43
2018-01-08T04:55:53.775Z,7.47
2018-01-08T04:58:20.371Z,7.80
2018-01-08T05:00:46.959Z,7.27
2018-01-08T05:03:13.567Z,7.53
2018-01-08T05:05:40.163Z,7.40
2018-01-08T05:08:06.751Z,9.27
2018-01-08T05:10:33.358Z,7.63
2018-01-08T05:12:59.967Z,7.70
2018-01-08T05:15:26.584Z,8.30
2018-01-08T05:17:53.175Z,7.80
2018-01-08T05:20:19.770Z,8.37
2018-01-08T05:22:46.362Z,7.40
2018-01-08T05:25:12.971Z,7.50
2018-01-08T05:27:39.578Z,10.20
2018-01-08T05:30:06.168Z,7.97
2018-01-08T05:32:32.768Z,7.90
2018-01-08T05:34:59.362Z,8.30
2018-01-08T05:37:25.951Z,7.43
2018-01-08T05:39:52.547Z,7.80
2018-01-08T05:42:19.141Z,8.40
2018-01-08T05:44:45.764Z,8.73
2018-01-08T05:47:12.351Z,7.63
2018-01-08T05:49:38.943Z,7.70
2018-01-08T05:52:05.559Z,8.43
2018-01-08T05:54:32.152Z,9.00
2018-01-08T05:56:58.744Z,9.20
2018-01-08T05:59:25.344Z,8.77
2018-01-08T06:01:51.975Z,9.33
2018-01-08T06:04:18.579Z,9.57
2018-01-08T06:06:45.171Z,9.47
2018-01-08T06:09:11.771Z,7.50
2018-01-08T06:11:38.364Z,8.93
2018-01-08T06:14:04.963Z,10.23
2018-01-08T06:16:31.575Z,8.03
2018-01-08T06:18:58.159Z,8.17
2018-01-08T06:21:24.752Z,8.53
2018-01-08T06:23:51.351Z,9.60
2018-01-08T06:26:17.940Z,9.07
2018-01-08T06:28:44.537Z,8.63
2018-01-08T06:31:11.135Z,8.80
2018-01-08T06:33:37.727Z,9.27
2018-01-08T06:36:04.319Z,9.53
2018-01-08T06:38:30.932Z,9.50
2018-01-08T06:40:57.518Z,9.13
2018-01-08T06:43:24.107Z,10.10
2018-01-08T06:45:50.717Z,10.40
2018-01-08T06:48:17.312Z,10.17
2018-01-08T06:50:43.933Z,10.93
2018-01-08T06:53:10.513Z,8.60
2018-01-08T06:55:37.111Z,10.00
2018-01-08T06:58:03.716Z,10.40
2018-01-08T07:00:30.323Z,8.90
2018-01-08T07:02:56.933Z,11.63
2018-01-08T07:05:23.524Z,11.10
2018-01-08T07:07:50.123Z,10.67
2018-01-08T07:10:16.723Z,10.07
2018-01-08T07:12:43.325Z,11.57
2018-01-08T07:15:09.932Z,10.00
2018-01-08T07:17:36.530Z,11.00
2018-01-08T07:20:03.123Z,11.60
2018-01-08T07:22:29.737Z,11.10
2018-01-08T07:24:56.330Z,10.73
2018-01-08T07:27:22.944Z,11.20
2018-01-08T07:29:49.548Z,11.07
2018-01-08T07:32:16.136Z,10.23
2018-01-08T07:34:42.754Z,11.30
2018-01-08T07:37:09.335Z,12.07
2018-01-08T07:39:35.939Z,11.83
2018-01-08T07:42:02.535Z,11.83
2018-01-08T07:44:29.130Z,13.57
2018-01-08T07:46:55.739Z,14.53
2018-01-08T07:49:22.322Z,12.83
2018-01-08T07:51:48.931Z,13.83
2018-01-08T07:54:15.528Z,15.03
2018-01-08T07:56:42.127Z,14.40
2018-01-08T07:59:08.727Z,12.37
2018-01-08T08:01:35.328Z,13.17
2018-01-08T08:04:01.931Z,12.50
2018-01-08T08:06:28.528Z,16.70
2018-01-08T08:08:55.123Z,14.53
2018-01-08T08:11:21.736Z,14.93
2018-01-08T08:13:48.327Z,13.00
2018-01-08T08:16:14.932Z,15.17
2018-01-08T08:18:41.531Z,16.47
2018-01-08T08:21:09.866Z,18.43
2018-01-08T08:23:36.460Z,14.80
2018-01-08T08:26:03.061Z,14.87
2018-01-08T08:28:29.663Z,16.60
2018-01-08T08:30:56.259Z,15.47
2018-01-08T08:33:22.855Z,14.67
2018-01-08T08:35:50.303Z,13.10
2018-01-08T08:38:16.899Z,16.10
2018-01-08T08:40:43.519Z,15.00
2018-01-08T08:43:10.120Z,16.07
2018-01-08T08:45:37.997Z,14.20
2018-01-08T08:48:04.588Z,17.43
2018-01-08T08:50:31.184Z,16.50
2018-01-08T08:52:57.783Z,14.73
2018-01-08T08:55:24.375Z,12.90
2018-01-08T08:57:50.971Z,13.93
2018-01-08T09:00:17.698Z,12.20
2018-01-08T09:02:44.291Z,12.73
2018-01-08T09:05:10.927Z,12.77
2018-01-08T09:07:37.515Z,14.70
2018-01-08T09:10:04.112Z,14.30
2018-01-08T09:12:30.707Z,14.13
2018-01-08T09:14:57.295Z,14.50
2018-01-08T09:17:23.907Z,15.33
2018-01-08T09:19:50.497Z,16.10
2018-01-08T09:22:17.105Z,15.63
2018-01-08T09:24:43.702Z,16.00
2018-01-08T09:27:10.290Z,11.97
2018-01-08T09:29:36.899Z,14.10
2018-01-08T09:32:03.488Z,14.07
2018-01-08T09:34:30.089Z,13.20
2018-01-08T09:36:56.692Z,14.30
2018-01-08T09:39:23.275Z,13.70
2018-01-08T09:41:49.895Z,13.63
2018-01-08T09:44:16.489Z,13.70
2018-01-08T09:46:43.081Z,13.80
2018-01-08T09:49:09.683Z,15.23
2018-01-08T09:51:36.275Z,13.13
2018-01-08T09:54:02.979Z,14.03
2018-01-08T09:56:29.555Z,13.53
2018-01-08T09:58:56.157Z,17.30
2018-01-08T10:01:22.755Z,16.30
2018-01-08T10:03:55.212Z,14.80
2018-01-08T10:06:27.720Z,13.77
2018-01-08T10:09:00.102Z,17.23
2018-01-08T10:11:32.634Z,13.33
2018-01-08T10:14:04.986Z,15.50
2018-01-08T10:16:37.523Z,14.10
2018-01-08T10:19:24.975Z,14.07
2018-01-08T10:21:51.583Z,14.87
2018-01-08T10:24:18.303Z,16.50
2018-01-08T10:26:44.884Z,14.90
2018-01-08T10:29:11.483Z,16.17
2018-01-08T10:31:38.092Z,17.17
2018-01-08T10:34:04.692Z,16.27
2018-01-08T10:36:31.283Z,16.53
2018-01-08T10:38:57.900Z,16.50
2018-01-08T10:41:30.219Z,15.10
2018-01-08T10:44:02.702Z,16.17
2018-01-08T10:46:35.133Z,16.80
2018-01-08T10:49:07.808Z,14.47
2018-01-08T10:51:40.089Z,14.40
2018-01-08T10:54:06.680Z,13.93
2018-01-08T10:56:33.298Z,14.60
2018-01-08T10:58:59.972Z,17.50
2018-01-08T11:01:32.319Z,14.53
2018-01-08T11:03:59.742Z,16.13
2018-01-08T11:06:26.343Z,19.00
2018-01-08T11:08:52.935Z,14.17
2018-01-08T11:11:19.564Z,13.90
2018-01-08T11:13:46.154Z,13.83
2018-01-08T11:16:12.747Z,14.90
2018-01-08T11:18:39.342Z,15.40
2018-01-08T11:21:05.939Z,16.60
2018-01-08T11:23:32.543Z,15.77
2018-01-08T11:25:59.138Z,14.43
2018-01-08T11:28:25.781Z,14.03
2018-01-08T11:30:52.383Z,13.40
2018-01-08T11:33:18.995Z,17.63
2018-01-08T11:35:45.599Z,13.17
2018-01-08T11:38:12.187Z,16.60
2018-01-08T11:40:38.812Z,16.47
2018-01-08T11:43:05.408Z,16.60
2018-01-08T11:45:32.067Z,15.13
2018-01-08T11:47:58.658Z,14.80
2018-01-08T11:50:25.636Z,15.40
2018-01-08T11:52:52.267Z,15.30
2018-01-08T11:55:18.831Z,15.30
2018-01-08T11:57:45.431Z,14.10
2018-01-08T12:00:12.051Z,16.63
2018-01-08T12:02:38.677Z,15.27
2018-01-08T12:05:06.235Z,14.27
2018-01-08T12:07:32.822Z,14.80
2018-01-08T12:09:59.427Z,16.00
2018-01-08T12:12:26.028Z,16.30
2018-01-08T12:14:52.619Z,14.70
2018-01-08T12:17:19.236Z,14.87
2018-01-08T12:19:45.855Z,14.87
2018-01-08T12:22:12.462Z,14.63
2018-01-08T12:24:39.042Z,15.07
2018-01-08T12:27:05.639Z,15.37
2018-01-08T12:29:32.231Z,17.27
2018-01-08T12:31:58.856Z,14.97
2018-01-08T12:34:25.467Z,15.23
2018-01-08T12:36:52.081Z,16.03
2018-01-08T12:39:19.487Z,18.50
2018-01-08T12:41:46.119Z,14.90
2018-01-08T12:44:12.709Z,14.60
2018-01-08T12:46:39.353Z,13.67
2018-01-08T12:49:05.949Z,15.67
2018-01-08T12:51:33.520Z,13.27
2018-01-08T12:54:00.132Z,14.87
2018-01-08T12:56:26.730Z,14.00
2018-01-08T12:58:53.339Z,15.60
2018-01-08T13:01:19.935Z,17.83
2018-01-08T13:03:46.536Z,15.50
2018-01-08T13:06:13.139Z,16.13
2018-01-08T13:08:39.851Z,16.93
2018-01-08T13:11:06.657Z,14.60
2018-01-08T13:13:33.325Z,16.57
2018-01-08T13:15:59.907Z,15.43
2018-01-08T13:18:26.557Z,14.27
2018-01-08T13:20:53.115Z,14.63
2018-01-08T13:23:19.708Z,13.10
2018-01-08T13:25:46.312Z,14.73
2018-01-08T13:28:12.915Z,18.67
2018-01-08T13:30:39.535Z,14.53
2018-01-08T13:33:06.119Z,16.33
2018-01-08T13:35:32.722Z,15.10
2018-01-08T13:37:59.319Z,14.80
2018-01-08T13:40:25.911Z,13.47
2018-01-08T13:42:52.515Z,16.60
2018-01-08T13:45:19.104Z,15.97
2018-01-08T13:47:45.698Z,13.40
2018-01-08T13:50:13.095Z,16.00
2018-01-08T13:52:39.734Z,14.20
2018-01-08T13:55:06.295Z,14.27
2018-01-08T13:57:32.899Z,14.87
2018-01-08T13:59:59.547Z,14.13
2018-01-08T14:02:26.095Z,14.37
2018-01-08T14:04:52.695Z,14.37
2018-01-08T14:07:19.291Z,15.00
2018-01-08T14:09:45.905Z,17.00
2018-01-08T14:12:12.496Z,16.00
2018-01-08T14:14:39.087Z,13.90
2018-01-08T14:17:05.685Z,14.50
2018-01-08T14:19:32.287Z,15.33
2018-01-08T14:21:58.896Z,15.53
2018-01-08T14:24:25.490Z,14.50
2018-01-08T14:26:52.111Z,14.00
2018-01-08T14:29:18.711Z,15.57
2018-01-08T14:31:45.299Z,15.27
2018-01-08T14:34:11.899Z,14.70
2018-01-08T14:36:38.491Z,16.70
2018-01-08T14:39:05.087Z,15.40
2018-01-08T14:41:31.679Z,15.60
2018-01-08T14:43:58.296Z,14.90
2018-01-08T14:46:24.891Z,13.50
2018-01-08T14:48:51.482Z,16.53
2018-01-08T14:51:18.075Z,14.70
2018-01-08T14:53:44.679Z,15.33
2018-01-08T14:56:11.286Z,15.00
2018-01-08T14:58:37.910Z,13.87
2018-01-08T15:01:04.499Z,14.47
2018-01-08T15:03:31.127Z,16.57
2018-01-08T15:05:57.731Z,14.93
2018-01-08T15:08:24.330Z,14.73
2018-01-08T15:10:50.931Z,16.80
2018-01-08T15:13:17.547Z,14.50
2018-01-08T15:15:44.154Z,13.20
2018-01-08T15:18:10.766Z,13.73
2018-01-08T15:20:37.369Z,13.80
2018-01-08T15:23:03.964Z,17.40
2018-01-08T15:25:30.570Z,13.83
2018-01-08T15:27:57.167Z,15.80
2018-01-08T15:30:23.771Z,15.17
2018-01-08T15:32:50.359Z,14.07
2018-01-08T15:35:16.960Z,14.03
2018-01-08T15:37:43.552Z,14.93
2018-01-08T15:40:10.147Z,11.27
2018-01-08T15:42:36.752Z,13.93
2018-01-08T15:45:03.344Z,16.57
2018-01-08T15:47:29.944Z,13.50
2018-01-08T15:49:56.847Z,15.33
2018-01-08T15:52:23.423Z,13.70
2018-01-08T15:54:50.037Z,13.57
2018-01-08T15:57:16.658Z,13.73
2018-01-08T15:59:43.263Z,16.80
2018-01-08T16:02:09.923Z,15.00
2018-01-08T16:04:36.531Z,14.27
2018-01-08T16:07:03.136Z,13.90
2018-01-08T16:09:30.303Z,13.67
2018-01-08T16:11:56.903Z,14.70
2018-01-08T16:14:23.507Z,14.40
2018-01-08T16:16:50.103Z,14.13
2018-01-08T16:19:16.695Z,13.57
2018-01-08T16:21:43.299Z,14.27
2018-01-08T16:24:09.899Z,15.20
2018-01-08T16:26:36.492Z,13.43
2018-01-08T16:29:03.092Z,13.97
2018-01-08T16:31:30.415Z,15.10
2018-01-08T16:33:57.127Z,13.67
2018-01-08T16:36:24.658Z,17.50
2018-01-08T16:38:51.244Z,18.93
2018-01-08T16:41:17.847Z,14.07
2018-01-08T16:43:44.435Z,15.53
2018-01-08T16:46:11.059Z,15.40
2018-01-08T16:48:37.663Z,14.10
2018-01-08T16:51:04.259Z,13.80
2018-01-08T16:53:30.860Z,13.60
2018-01-08T16:55:57.451Z,13.83
2018-01-08T16:58:24.047Z,15.33
2018-01-08T17:00:50.642Z,14.10
2018-01-08T17:03:17.251Z,15.93
2018-01-08T17:05:43.843Z,14.10
2018-01-08T17:08:10.439Z,15.90
2018-01-08T17:10:37.052Z,15.03
2018-01-08T17:13:03.635Z,16.33
2018-01-08T17:15:30.241Z,14.50
2018-01-08T17:17:56.834Z,16.47
2018-01-08T17:20:23.439Z,15.83
2018-01-08T17:22:50.046Z,15.10
2018-01-08T17:25:16.642Z,15.27
2018-01-08T17:27:43.260Z,14.30
2018-01-08T17:30:09.863Z,15.47
2018-01-08T17:32:36.531Z,17.10
2018-01-08T17:35:03.127Z,18.57
2018-01-08T17:37:29.746Z,15.60
2018-01-08T17:39:56.335Z,14.07
2018-01-08T17:42:22.928Z,15.50
2018-01-08T17:44:49.540Z,16.83
2018-01-08T17:47:16.147Z,14.80
2018-01-08T17:49:42.764Z,14.27
2018-01-08T17:52:09.351Z,15.97
2018-01-08T17:54:36.191Z,13.97
2018-01-08T17:57:02.783Z,14.63
2018-01-08T17:59:29.399Z,17.27
2018-01-08T18:01:55.997Z,14.50
2018-01-08T18:04:22.596Z,16.93
2018-01-08T18:06:49.203Z,16.73
2018-01-08T18:09:15.852Z,14.97
2018-01-08T18:11:42.455Z,15.73
2018-01-08T18:14:09.064Z,17.30
2018-01-08T18:16:35.660Z,16.23
2018-01-08T18:19:02.271Z,17.53
2018-01-08T18:21:28.859Z,17.13
2018-01-08T18:23:55.474Z,15.70
2018-01-08T18:26:22.059Z,16.20
2018-01-08T18:28:48.707Z,18.07
2018-01-08T18:31:15.336Z,18.40
2018-01-08T18:33:41.955Z,17.40
2018-01-08T18:36:08.563Z,17.03
2018-01-08T18:38:35.155Z,19.10
2018-01-08T18:41:01.801Z,16.53
2018-01-08T18:43:28.386Z,16.20
2018-01-08T18:45:55.015Z,16.33
2018-01-08T18:48:21.617Z,18.27
2018-01-08T18:50:48.206Z,18.03
2018-01-08T18:53:14.811Z,18.77
2018-01-08T18:55:41.403Z,16.17
2018-01-08T18:58:08.017Z,16.00
2018-01-08T19:00:34.611Z,15.60
2018-01-08T19:03:01.212Z,19.60
2018-01-08T19:05:27.820Z,18.60
2018-01-08T19:07:54.412Z,17.60
2018-01-08T19:10:21.028Z,19.23
2018-01-08T19:12:47.615Z,17.87
2018-01-08T19:15:14.260Z,19.13
2018-01-08T19:17:40.863Z,17.93
2018-01-08T19:20:07.472Z,17.57
2018-01-08T19:22:34.084Z,18.87
2018-01-08T19:25:00.680Z,22.07
2018-01-08T19:27:27.279Z,18.20
2018-01-08T19:29:53.899Z,18.20
2018-01-08T19:32:20.526Z,17.33
2018-01-08T19:34:47.115Z,19.33
2018-01-08T19:37:14.745Z,17.83
2018-01-08T19:39:41.347Z,18.90
2018-01-08T19:42:07.951Z,17.53
2018-01-08T19:44:34.591Z,16.70
2018-01-08T19:47:01.192Z,18.33
2018-01-08T19:49:27.794Z,17.83
2018-01-08T19:51:54.463Z,18.43
2018-01-08T19:54:21.059Z,17.53
2018-01-08T19:56:47.665Z,17.93
2018-01-08T19:59:14.260Z,19.53
2018-01-08T20:01:40.872Z,16.03
2018-01-08T20:04:07.469Z,19.70
2018-01-08T20:06:34.063Z,16.53
2018-01-08T20:09:00.664Z,18.20
2018-01-08T20:11:27.258Z,16.70
2018-01-08T20:13:53.866Z,17.80
2018-01-08T20:16:20.479Z,17.37
2018-01-08T20:18:47.079Z,17.40
2018-01-08T20:21:13.687Z,19.10
2018-01-08T20:23:40.314Z,18.10
2018-01-08T20:26:06.911Z,19.90
2018-01-08T20:28:33.508Z,18.30
2018-01-08T20:31:00.120Z,15.90
2018-01-08T20:33:26.726Z,19.00
2018-01-08T20:35:53.332Z,17.23
2018-01-08T20:38:19.989Z,18.57
2018-01-08T20:40:47.548Z,16.97
2018-01-08T20:43:14.149Z,21.40
2018-01-08T20:45:40.964Z,18.87
2018-01-08T20:48:07.600Z,17.70
2018-01-08T20:50:34.200Z,16.73
2018-01-08T20:53:00.801Z,16.00
2018-01-08T20:55:27.408Z,18.73
2018-01-08T20:57:54.004Z,19.20
2018-01-08T21:00:20.611Z,16.50
2018-01-08T21:02:47.219Z,19.73
2018-01-08T21:05:13.811Z,19.40
2018-01-08T21:07:40.952Z,18.00
2018-01-08T21:10:07.587Z,17.30
2018-01-08T21:12:34.215Z,16.07
2018-01-08T21:15:00.815Z,20.10
2018-01-08T21:17:27.509Z,19.70
2018-01-08T21:19:54.118Z,16.67
2018-01-08T21:22:20.775Z,17.40
2018-01-08T21:24:47.384Z,16.30
2018-01-08T21:27:13.980Z,16.40
2018-01-08T21:29:40.589Z,19.80
2018-01-08T21:32:07.191Z,16.13
2018-01-08T21:34:33.783Z,18.47
2018-01-08T21:37:00.391Z,17.23
2018-01-08T21:39:26.987Z,19.90
2018-01-08T21:41:53.593Z,21.43
2018-01-08T21:44:20.186Z,18.00
2018-01-08T21:46:46.795Z,16.90
2018-01-08T21:49:13.410Z,16.80
2018-01-08T21:51:40.001Z,17.83
2018-01-08T21:54:06.600Z,18.50
2018-01-08T21:56:33.200Z,17.43
2018-01-08T21:58:59.804Z,15.30
2018-01-08T22:01:26.400Z,17.20
2018-01-08T22:03:53.003Z,15.67
2018-01-08T22:06:19.612Z,17.93
2018-01-08T22:08:46.218Z,15.73
2018-01-08T22:11:12.807Z,16.97
2018-01-08T22:13:39.427Z,17.20
2018-01-08T22:16:06.012Z,16.33
2018-01-08T22:18:32.613Z,18.27
2018-01-08T22:20:59.219Z,18.43
2018-01-08T22:23:25.816Z,17.87
2018-01-08T22:25:52.475Z,17.77
2018-01-08T22:28:19.070Z,17.10
2018-01-08T22:30:45.684Z,14.20
2018-01-08T22:33:12.281Z,17.17
2018-01-08T22:35:38.880Z,16.00
2018-01-08T22:38:05.489Z,15.33
2018-01-08T22:40:32.079Z,17.33
2018-01-08T22:42:58.686Z,16.20
2018-01-08T22:45:25.283Z,15.60
2018-01-08T22:47:51.912Z,15.60
2018-01-08T22:50:18.487Z,16.60
2018-01-08T22:52:45.112Z,17.37
2018-01-08T22:55:11.707Z,14.07
2018-01-08T22:57:38.304Z,19.90
2018-01-08T23:00:04.928Z,18.73
2018-01-08T23:02:31.531Z,18.77
2018-01-08T23:04:58.132Z,16.57
2018-01-08T23:07:24.735Z,15.60
2018-01-08T23:09:51.347Z,17.90
2018-01-08T23:12:17.957Z,16.50
2018-01-08T23:14:44.546Z,15.23
2018-01-08T23:17:11.139Z,16.70
2018-01-08T23:19:37.747Z,15.13
2018-01-08T23:22:04.350Z,16.40
2018-01-08T23:24:31.907Z,16.87
2018-01-08T23:26:58.512Z,16.00
2018-01-08T23:29:25.108Z,18.23
2018-01-08T23:31:51.712Z,14.60
2018-01-08T23:34:18.303Z,15.30
2018-01-08T23:36:44.912Z,15.87
2018-01-08T23:39:11.535Z,14.40
2018-01-08T23:41:38.136Z,15.17
2018-01-08T23:44:04.736Z,15.60
2018-01-08T23:46:31.396Z,15.00
2018-01-08T23:48:57.978Z,14.60
2018-01-08T23:51:24.579Z,15.63
2018-01-08T23:53:51.171Z,14.20
2018-01-08T23:56:17.781Z,14.20
2018-01-08T23:58:44.375Z,15.10
